sensor_id;sensor_type;location;lat;lon;timestamp;pressure;altitude;pressure_sealevel;temperature;humidity
44103;BME280;29769;42.178;24.742;2023-05-17T00:01:48;99117.38;;;13.64;100.00
44103;BME280;29769;42.178;24.742;2023-05-17T00:04:33;99115.78;;;13.60;100.00
44103;BME280;29769;42.178;24.742;2023-05-17T00:07:17;99122.78;;;13.61;100.00
44103;BME280;29769;42.178;24.742;2023-05-17T00:10:02;99119.34;;;13.59;100.00
44103;BME280;29769;42.178;24.742;2023-05-17T00:12:47;99120.38;;;13.55;100.00
44103;BME280;29769;42.178;24.742;2023-05-17T00:15:31;99115.31;;;13.49;100.00
44103;BME280;29769;42.178;24.742;2023-05-17T00:18:16;99114.72;;;13.41;100.00
44103;BME280;29769;42.178;24.742;2023-05-17T00:21:00;99121.94;;;13.35;100.00
44103;BME280;29769;42.178;24.742;2023-05-17T00:23:45;99110.78;;;13.27;100.00
44103;BME280;29769;42.178;24.742;2023-05-17T00:26:29;99120.09;;;13.13;100.00
44103;BME280;29769;42.178;24.742;2023-05-17T00:29:14;99121.16;;;13.07;100.00
44103;BME280;29769;42.178;24.742;2023-05-17T00:32:00;99119.59;;;13.02;100.00
44103;BME280;29769;42.178;24.742;2023-05-17T00:34:44;99117.84;;;13.01;100.00
44103;BME280;29769;42.178;24.742;2023-05-17T00:37:29;99110.09;;;12.96;100.00
44103;BME280;29769;42.178;24.742;2023-05-17T00:40:13;99110.16;;;12.95;100.00
44103;BME280;29769;42.178;24.742;2023-05-17T00:42:59;99101.47;;;12.91;100.00
44103;BME280;29769;42.178;24.742;2023-05-17T00:45:44;99099.06;;;12.85;100.00
44103;BME280;29769;42.178;24.742;2023-05-17T00:48:28;99098.97;;;12.86;100.00
44103;BME280;29769;42.178;24.742;2023-05-17T00:51:13;99085.94;;;12.82;100.00
44103;BME280;29769;42.178;24.742;2023-05-17T00:53:59;99083.41;;;12.79;100.00
44103;BME280;29769;42.178;24.742;2023-05-17T00:56:45;99087.94;;;12.75;100.00
44103;BME280;29769;42.178;24.742;2023-05-17T00:59:30;99082.53;;;12.78;100.00
44103;BME280;29769;42.178;24.742;2023-05-17T01:02:15;99087.72;;;12.81;100.00
44103;BME280;29769;42.178;24.742;2023-05-17T01:04:59;99084.41;;;12.76;100.00
44103;BME280;29769;42.178;24.742;2023-05-17T01:07:46;99090.81;;;12.68;100.00
44103;BME280;29769;42.178;24.742;2023-05-17T01:16:30;99089.28;;;12.62;100.00
44103;BME280;29769;42.178;24.742;2023-05-17T01:19:32;99090.06;;;12.64;100.00
44103;BME280;29769;42.178;24.742;2023-05-17T01:22:30;99090.88;;;12.66;100.00
44103;BME280;29769;42.178;24.742;2023-05-17T01:28:08;99094.38;;;12.67;100.00
44103;BME280;29769;42.178;24.742;2023-05-17T01:30:54;99085.59;;;12.66;100.00
44103;BME280;29769;42.178;24.742;2023-05-17T01:33:39;99077.53;;;12.71;100.00
44103;BME280;29769;42.178;24.742;2023-05-17T01:36:25;99065.25;;;12.70;100.00
44103;BME280;29769;42.178;24.742;2023-05-17T01:39:10;99073.28;;;12.67;100.00
44103;BME280;29769;42.178;24.742;2023-05-17T01:42:15;99067.19;;;12.65;100.00
44103;BME280;29769;42.178;24.742;2023-05-17T01:45:05;99057.66;;;12.61;100.00
44103;BME280;29769;42.178;24.742;2023-05-17T01:50:41;99061.41;;;12.54;100.00
44103;BME280;29769;42.178;24.742;2023-05-17T01:53:41;99066.47;;;12.60;100.00
44103;BME280;29769;42.178;24.742;2023-05-17T01:56:32;99075.97;;;12.65;100.00
44103;BME280;29769;42.178;24.742;2023-05-17T01:59:18;99075.22;;;12.62;100.00
44103;BME280;29769;42.178;24.742;2023-05-17T02:02:05;99068.00;;;12.67;100.00
44103;BME280;29769;42.178;24.742;2023-05-17T02:04:53;99072.41;;;12.66;100.00
44103;BME280;29769;42.178;24.742;2023-05-17T02:07:38;99076.00;;;12.64;100.00
44103;BME280;29769;42.178;24.742;2023-05-17T02:10:23;99069.38;;;12.52;100.00
44103;BME280;29769;42.178;24.742;2023-05-17T02:13:07;99066.47;;;12.60;100.00
44103;BME280;29769;42.178;24.742;2023-05-17T02:15:52;99069.06;;;12.61;100.00
44103;BME280;29769;42.178;24.742;2023-05-17T02:18:36;99068.75;;;12.44;100.00
44103;BME280;29769;42.178;24.742;2023-05-17T02:21:21;99083.03;;;12.37;100.00
44103;BME280;29769;42.178;24.742;2023-05-17T02:24:06;99086.22;;;12.48;100.00
44103;BME280;29769;42.178;24.742;2023-05-17T02:26:51;99084.22;;;12.55;100.00
44103;BME280;29769;42.178;24.742;2023-05-17T02:29:35;99080.13;;;12.46;100.00
44103;BME280;29769;42.178;24.742;2023-05-17T02:32:20;99089.88;;;12.44;100.00
44103;BME280;29769;42.178;24.742;2023-05-17T02:35:05;99073.56;;;12.31;100.00
44103;BME280;29769;42.178;24.742;2023-05-17T02:37:50;99076.22;;;12.03;100.00
44103;BME280;29769;42.178;24.742;2023-05-17T02:40:35;99081.97;;;11.87;100.00
44103;BME280;29769;42.178;24.742;2023-05-17T02:43:20;99089.66;;;11.64;100.00
44103;BME280;29769;42.178;24.742;2023-05-17T02:46:05;99092.41;;;11.60;100.00
44103;BME280;29769;42.178;24.742;2023-05-17T02:48:50;99095.53;;;11.75;100.00
44103;BME280;29769;42.178;24.742;2023-05-17T02:51:34;99097.34;;;11.73;100.00
44103;BME280;29769;42.178;24.742;2023-05-17T02:54:19;99100.94;;;11.69;100.00
44103;BME280;29769;42.178;24.742;2023-05-17T02:57:04;99090.00;;;11.84;100.00
44103;BME280;29769;42.178;24.742;2023-05-17T02:59:49;99092.25;;;11.96;100.00
44103;BME280;29769;42.178;24.742;2023-05-17T03:02:34;99085.25;;;11.95;100.00
44103;BME280;29769;42.178;24.742;2023-05-17T03:05:18;99095.44;;;11.78;100.00
44103;BME280;29769;42.178;24.742;2023-05-17T03:08:08;99101.78;;;11.71;100.00
44103;BME280;29769;42.178;24.742;2023-05-17T03:10:54;99102.25;;;11.85;100.00
44103;BME280;29769;42.178;24.742;2023-05-17T03:13:39;99098.38;;;11.96;100.00
44103;BME280;29769;42.178;24.742;2023-05-17T03:16:24;99106.03;;;12.04;100.00
44103;BME280;29769;42.178;24.742;2023-05-17T03:19:10;99110.22;;;12.13;100.00
44103;BME280;29769;42.178;24.742;2023-05-17T03:21:55;99108.38;;;12.15;100.00
44103;BME280;29769;42.178;24.742;2023-05-17T03:24:40;99114.97;;;12.28;100.00
44103;BME280;29769;42.178;24.742;2023-05-17T03:27:25;99118.16;;;12.39;100.00
44103;BME280;29769;42.178;24.742;2023-05-17T03:30:10;99124.81;;;12.51;100.00
44103;BME280;29769;42.178;24.742;2023-05-17T03:32:54;99121.94;;;12.58;100.00
44103;BME280;29769;42.178;24.742;2023-05-17T03:35:39;99123.31;;;12.70;100.00
44103;BME280;29769;42.178;24.742;2023-05-17T03:38:23;99126.63;;;12.76;100.00
44103;BME280;29769;42.178;24.742;2023-05-17T03:41:09;99136.09;;;12.82;100.00
44103;BME280;29769;42.178;24.742;2023-05-17T03:43:54;99127.16;;;12.86;100.00
44103;BME280;29769;42.178;24.742;2023-05-17T03:46:39;99136.66;;;12.91;100.00
44103;BME280;29769;42.178;24.742;2023-05-17T03:49:24;99144.31;;;12.99;100.00
44103;BME280;29769;42.178;24.742;2023-05-17T03:52:09;99141.56;;;13.02;100.00
44103;BME280;29769;42.178;24.742;2023-05-17T03:54:54;99142.31;;;13.06;100.00
44103;BME280;29769;42.178;24.742;2023-05-17T03:57:39;99147.22;;;13.18;100.00
44103;BME280;29769;42.178;24.742;2023-05-17T04:00:24;99146.09;;;13.25;100.00
44103;BME280;29769;42.178;24.742;2023-05-17T04:03:14;99138.72;;;13.34;100.00
44103;BME280;29769;42.178;24.742;2023-05-17T04:06:02;99141.38;;;13.34;100.00
44103;BME280;29769;42.178;24.742;2023-05-17T04:08:49;99143.88;;;13.38;100.00
44103;BME280;29769;42.178;24.742;2023-05-17T04:11:35;99144.75;;;13.38;100.00
44103;BME280;29769;42.178;24.742;2023-05-17T04:14:19;99135.75;;;13.44;100.00
44103;BME280;29769;42.178;24.742;2023-05-17T04:17:05;99146.00;;;13.53;100.00
44103;BME280;29769;42.178;24.742;2023-05-17T04:19:50;99145.06;;;13.54;100.00
44103;BME280;29769;42.178;24.742;2023-05-17T04:22:35;99148.47;;;13.57;100.00
44103;BME280;29769;42.178;24.742;2023-05-17T04:25:20;99152.78;;;13.60;100.00
44103;BME280;29769;42.178;24.742;2023-05-17T04:28:06;99152.09;;;13.78;100.00
44103;BME280;29769;42.178;24.742;2023-05-17T04:30:51;99147.47;;;13.85;100.00
44103;BME280;29769;42.178;24.742;2023-05-17T04:33:37;99130.31;;;13.95;100.00
44103;BME280;29769;42.178;24.742;2023-05-17T04:36:23;99127.16;;;14.08;100.00
44103;BME280;29769;42.178;24.742;2023-05-17T04:39:09;99126.63;;;14.22;100.00
44103;BME280;29769;42.178;24.742;2023-05-17T04:41:55;99122.78;;;14.31;100.00
44103;BME280;29769;42.178;24.742;2023-05-17T04:44:40;99127.59;;;14.43;100.00
44103;BME280;29769;42.178;24.742;2023-05-17T04:47:25;99124.22;;;14.61;100.00
44103;BME280;29769;42.178;24.742;2023-05-17T04:50:10;99128.78;;;14.79;100.00
44103;BME280;29769;42.178;24.742;2023-05-17T04:52:55;99134.28;;;14.95;100.00
44103;BME280;29769;42.178;24.742;2023-05-17T04:55:40;99138.03;;;15.11;100.00
44103;BME280;29769;42.178;24.742;2023-05-17T04:58:26;99137.09;;;15.32;100.00
44103;BME280;29769;42.178;24.742;2023-05-17T05:01:14;99143.28;;;15.53;100.00
44103;BME280;29769;42.178;24.742;2023-05-17T05:03:59;99143.47;;;15.69;100.00
44103;BME280;29769;42.178;24.742;2023-05-17T05:06:46;99150.44;;;15.90;100.00
44103;BME280;29769;42.178;24.742;2023-05-17T05:09:31;99151.97;;;16.14;100.00
44103;BME280;29769;42.178;24.742;2023-05-17T05:12:15;99158.22;;;16.32;100.00
44103;BME280;29769;42.178;24.742;2023-05-17T05:15:01;99157.28;;;16.33;100.00
44103;BME280;29769;42.178;24.742;2023-05-17T05:17:46;99158.59;;;16.24;100.00
44103;BME280;29769;42.178;24.742;2023-05-17T05:20:32;99157.16;;;15.98;100.00
44103;BME280;29769;42.178;24.742;2023-05-17T05:23:16;99154.63;;;15.56;100.00
44103;BME280;29769;42.178;24.742;2023-05-17T05:26:04;99161.00;;;15.10;100.00
44103;BME280;29769;42.178;24.742;2023-05-17T05:28:49;99163.84;;;15.06;100.00
44103;BME280;29769;42.178;24.742;2023-05-17T05:31:35;99154.88;;;14.88;100.00
44103;BME280;29769;42.178;24.742;2023-05-17T05:34:21;99161.41;;;14.80;100.00
44103;BME280;29769;42.178;24.742;2023-05-17T05:37:06;99160.22;;;14.87;100.00
44103;BME280;29769;42.178;24.742;2023-05-17T05:39:50;99156.84;;;14.83;100.00
44103;BME280;29769;42.178;24.742;2023-05-17T05:42:36;99162.13;;;14.83;100.00
44103;BME280;29769;42.178;24.742;2023-05-17T05:45:21;99169.16;;;14.84;100.00
44103;BME280;29769;42.178;24.742;2023-05-17T05:48:07;99167.28;;;14.86;100.00
44103;BME280;29769;42.178;24.742;2023-05-17T05:50:52;99172.50;;;14.89;100.00
44103;BME280;29769;42.178;24.742;2023-05-17T05:53:37;99180.28;;;14.92;100.00
44103;BME280;29769;42.178;24.742;2023-05-17T05:56:22;99167.28;;;15.08;100.00
44103;BME280;29769;42.178;24.742;2023-05-17T05:59:09;99173.00;;;15.39;100.00
44103;BME280;29769;42.178;24.742;2023-05-17T06:01:54;99170.19;;;15.64;100.00
44103;BME280;29769;42.178;24.742;2023-05-17T06:04:38;99131.56;;;15.77;100.00
44103;BME280;29769;42.178;24.742;2023-05-17T06:07:24;99160.16;;;16.28;100.00
44103;BME280;29769;42.178;24.742;2023-05-17T06:10:09;99147.38;;;16.55;100.00
44103;BME280;29769;42.178;24.742;2023-05-17T06:12:53;99153.78;;;16.70;100.00
44103;BME280;29769;42.178;24.742;2023-05-17T06:15:38;99157.97;;;16.93;100.00
44103;BME280;29769;42.178;24.742;2023-05-17T06:18:23;99163.31;;;16.74;100.00
44103;BME280;29769;42.178;24.742;2023-05-17T06:21:07;99164.81;;;16.79;100.00
44103;BME280;29769;42.178;24.742;2023-05-17T06:23:52;99175.72;;;16.36;100.00
44103;BME280;29769;42.178;24.742;2023-05-17T06:26:37;99176.94;;;16.29;100.00
44103;BME280;29769;42.178;24.742;2023-05-17T06:29:22;99174.78;;;16.18;100.00
44103;BME280;29769;42.178;24.742;2023-05-17T06:32:07;99172.91;;;16.76;100.00
44103;BME280;29769;42.178;24.742;2023-05-17T06:34:51;99171.31;;;17.44;100.00
44103;BME280;29769;42.178;24.742;2023-05-17T06:37:36;99162.00;;;18.03;100.00
44103;BME280;29769;42.178;24.742;2023-05-17T06:40:20;99158.75;;;18.13;100.00
44103;BME280;29769;42.178;24.742;2023-05-17T06:43:05;99161.81;;;18.70;100.00
44103;BME280;29769;42.178;24.742;2023-05-17T06:45:49;99165.81;;;19.08;100.00
44103;BME280;29769;42.178;24.742;2023-05-17T06:48:34;99169.88;;;19.00;100.00
44103;BME280;29769;42.178;24.742;2023-05-17T06:51:19;99175.56;;;18.94;100.00
44103;BME280;29769;42.178;24.742;2023-05-17T06:54:03;99176.91;;;19.17;100.00
44103;BME280;29769;42.178;24.742;2023-05-17T06:56:50;99183.56;;;18.62;100.00
44103;BME280;29769;42.178;24.742;2023-05-17T06:59:35;99190.56;;;18.32;100.00
44103;BME280;29769;42.178;24.742;2023-05-17T07:02:20;99190.97;;;18.57;100.00
44103;BME280;29769;42.178;24.742;2023-05-17T07:05:05;99198.91;;;18.09;100.00
44103;BME280;29769;42.178;24.742;2023-05-17T07:07:50;99214.53;;;17.82;100.00
44103;BME280;29769;42.178;24.742;2023-05-17T07:10:34;99207.63;;;18.12;100.00
44103;BME280;29769;42.178;24.742;2023-05-17T07:13:19;99214.88;;;17.76;100.00
44103;BME280;29769;42.178;24.742;2023-05-17T07:16:05;99212.81;;;17.47;100.00
44103;BME280;29769;42.178;24.742;2023-05-17T07:18:50;99224.25;;;17.49;100.00
44103;BME280;29769;42.178;24.742;2023-05-17T07:21:35;99216.41;;;16.93;100.00
44103;BME280;29769;42.178;24.742;2023-05-17T07:24:20;99221.16;;;16.67;100.00
44103;BME280;29769;42.178;24.742;2023-05-17T07:27:04;99220.13;;;16.71;100.00
44103;BME280;29769;42.178;24.742;2023-05-17T07:29:49;99219.53;;;16.65;100.00
44103;BME280;29769;42.178;24.742;2023-05-17T07:32:33;99214.19;;;16.83;100.00
44103;BME280;29769;42.178;24.742;2023-05-17T07:35:17;99213.19;;;16.67;100.00
44103;BME280;29769;42.178;24.742;2023-05-17T07:38:02;99217.09;;;16.40;100.00
44103;BME280;29769;42.178;24.742;2023-05-17T07:40:46;99199.44;;;16.59;100.00
44103;BME280;29769;42.178;24.742;2023-05-17T07:43:31;99199.34;;;16.79;100.00
44103;BME280;29769;42.178;24.742;2023-05-17T07:46:16;99197.19;;;16.87;100.00
44103;BME280;29769;42.178;24.742;2023-05-17T07:49:00;99193.28;;;16.95;100.00
44103;BME280;29769;42.178;24.742;2023-05-17T07:51:45;99187.28;;;17.08;100.00
44103;BME280;29769;42.178;24.742;2023-05-17T07:54:29;99184.31;;;17.14;100.00
44103;BME280;29769;42.178;24.742;2023-05-17T07:57:14;99187.63;;;17.19;100.00
44103;BME280;29769;42.178;24.742;2023-05-17T07:59:58;99193.88;;;17.18;100.00
44103;BME280;29769;42.178;24.742;2023-05-17T08:02:44;99200.28;;;17.14;100.00
44103;BME280;29769;42.178;24.742;2023-05-17T08:05:29;99202.69;;;17.19;100.00
44103;BME280;29769;42.178;24.742;2023-05-17T08:08:14;99204.03;;;17.10;100.00
44103;BME280;29769;42.178;24.742;2023-05-17T08:10:59;99209.84;;;17.00;100.00
44103;BME280;29769;42.178;24.742;2023-05-17T08:13:43;99201.75;;;17.03;100.00
44103;BME280;29769;42.178;24.742;2023-05-17T08:16:29;99201.44;;;17.09;100.00
44103;BME280;29769;42.178;24.742;2023-05-17T08:19:13;99190.81;;;17.09;100.00
44103;BME280;29769;42.178;24.742;2023-05-17T08:21:59;99190.72;;;17.10;100.00
44103;BME280;29769;42.178;24.742;2023-05-17T08:24:44;99185.34;;;17.12;100.00
44103;BME280;29769;42.178;24.742;2023-05-17T08:27:28;99187.91;;;17.13;100.00
44103;BME280;29769;42.178;24.742;2023-05-17T08:30:15;99182.53;;;17.15;100.00
44103;BME280;29769;42.178;24.742;2023-05-17T08:32:59;99184.94;;;17.02;100.00
44103;BME280;29769;42.178;24.742;2023-05-17T08:35:44;99179.22;;;16.93;100.00
44103;BME280;29769;42.178;24.742;2023-05-17T08:38:29;99175.91;;;16.87;100.00
44103;BME280;29769;42.178;24.742;2023-05-17T08:41:13;99172.09;;;16.76;100.00
44103;BME280;29769;42.178;24.742;2023-05-17T08:43:58;99186.94;;;16.80;100.00
44103;BME280;29769;42.178;24.742;2023-05-17T08:46:44;99200.56;;;16.72;100.00
44103;BME280;29769;42.178;24.742;2023-05-17T08:49:35;99200.88;;;16.66;100.00
44103;BME280;29769;42.178;24.742;2023-05-17T08:52:21;99207.66;;;16.72;100.00
44103;BME280;29769;42.178;24.742;2023-05-17T08:55:06;99215.34;;;16.59;100.00
44103;BME280;29769;42.178;24.742;2023-05-17T08:57:51;99217.09;;;16.60;100.00
44103;BME280;29769;42.178;24.742;2023-05-17T09:00:35;99213.06;;;16.13;100.00
44103;BME280;29769;42.178;24.742;2023-05-17T09:03:20;99209.03;;;16.04;100.00
44103;BME280;29769;42.178;24.742;2023-05-17T09:06:06;99217.03;;;15.64;100.00
44103;BME280;29769;42.178;24.742;2023-05-17T09:08:51;99221.63;;;15.38;100.00
44103;BME280;29769;42.178;24.742;2023-05-17T09:11:36;99215.56;;;15.14;100.00
44103;BME280;29769;42.178;24.742;2023-05-17T09:14:22;99207.50;;;14.74;100.00
44103;BME280;29769;42.178;24.742;2023-05-17T09:17:06;99208.72;;;14.44;100.00
44103;BME280;29769;42.178;24.742;2023-05-17T09:19:51;99207.25;;;14.35;100.00
44103;BME280;29769;42.178;24.742;2023-05-17T09:22:36;99192.09;;;14.17;100.00
44103;BME280;29769;42.178;24.742;2023-05-17T09:25:22;99185.28;;;14.10;100.00
44103;BME280;29769;42.178;24.742;2023-05-17T09:28:07;99182.78;;;14.07;100.00
44103;BME280;29769;42.178;24.742;2023-05-17T09:30:52;99181.09;;;14.04;100.00
44103;BME280;29769;42.178;24.742;2023-05-17T09:33:43;99185.59;;;14.02;100.00
44103;BME280;29769;42.178;24.742;2023-05-17T09:36:28;99183.69;;;14.06;100.00
44103;BME280;29769;42.178;24.742;2023-05-17T09:39:13;99185.06;;;14.16;100.00
44103;BME280;29769;42.178;24.742;2023-05-17T09:41:59;99186.59;;;14.45;100.00
44103;BME280;29769;42.178;24.742;2023-05-17T09:44:54;99195.00;;;14.78;100.00
44103;BME280;29769;42.178;24.742;2023-05-17T09:47:42;99196.28;;;15.11;100.00
44103;BME280;29769;42.178;24.742;2023-05-17T09:50:27;99190.03;;;15.34;100.00
44103;BME280;29769;42.178;24.742;2023-05-17T09:53:29;99196.84;;;15.61;100.00
44103;BME280;29769;42.178;24.742;2023-05-17T09:56:14;99189.41;;;15.89;100.00
44103;BME280;29769;42.178;24.742;2023-05-17T09:59:02;99187.16;;;15.99;100.00
44103;BME280;29769;42.178;24.742;2023-05-17T10:01:47;99181.53;;;16.07;100.00
44103;BME280;29769;42.178;24.742;2023-05-17T10:04:33;99175.88;;;16.14;100.00
44103;BME280;29769;42.178;24.742;2023-05-17T10:07:21;99178.16;;;16.22;100.00
44103;BME280;29769;42.178;24.742;2023-05-17T10:10:09;99178.91;;;16.25;100.00
44103;BME280;29769;42.178;24.742;2023-05-17T10:12:55;99175.28;;;16.45;100.00
44103;BME280;29769;42.178;24.742;2023-05-17T10:15:40;99171.66;;;16.66;100.00
44103;BME280;29769;42.178;24.742;2023-05-17T10:18:25;99173.44;;;16.84;100.00
44103;BME280;29769;42.178;24.742;2023-05-17T10:21:12;99172.53;;;17.03;100.00
44103;BME280;29769;42.178;24.742;2023-05-17T10:23:58;99166.75;;;17.12;100.00
44103;BME280;29769;42.178;24.742;2023-05-17T10:26:44;99167.16;;;17.21;100.00
44103;BME280;29769;42.178;24.742;2023-05-17T10:29:29;99175.81;;;17.25;100.00
44103;BME280;29769;42.178;24.742;2023-05-17T10:32:19;99170.75;;;17.38;100.00
44103;BME280;29769;42.178;24.742;2023-05-17T10:35:06;99170.34;;;17.45;100.00
44103;BME280;29769;42.178;24.742;2023-05-17T10:37:52;99162.75;;;17.55;100.00
44103;BME280;29769;42.178;24.742;2023-05-17T10:40:36;99159.41;;;17.68;100.00
44103;BME280;29769;42.178;24.742;2023-05-17T10:43:22;99159.28;;;17.87;100.00
44103;BME280;29769;42.178;24.742;2023-05-17T10:46:11;99159.97;;;17.91;100.00
44103;BME280;29769;42.178;24.742;2023-05-17T10:48:59;99167.88;;;17.92;100.00
44103;BME280;29769;42.178;24.742;2023-05-17T10:51:44;99167.88;;;17.92;100.00
44103;BME280;29769;42.178;24.742;2023-05-17T10:54:37;99174.56;;;17.84;100.00
44103;BME280;29769;42.178;24.742;2023-05-17T11:00:19;99179.25;;;17.27;100.00
44103;BME280;29769;42.178;24.742;2023-05-17T11:06:16;99173.78;;;17.30;100.00
44103;BME280;29769;42.178;24.742;2023-05-17T11:09:12;99177.22;;;17.32;100.00
44103;BME280;29769;42.178;24.742;2023-05-17T11:12:07;99173.47;;;17.19;100.00
44103;BME280;29769;42.178;24.742;2023-05-17T11:14:53;99167.69;;;17.11;100.00
44103;BME280;29769;42.178;24.742;2023-05-17T11:23:16;99150.06;;;17.08;100.00
44103;BME280;29769;42.178;24.742;2023-05-17T11:26:11;99148.59;;;17.03;100.00
44103;BME280;29769;42.178;24.742;2023-05-17T11:29:16;99154.59;;;16.89;100.00
44103;BME280;29769;42.178;24.742;2023-05-17T11:32:03;99146.69;;;16.33;100.00
44103;BME280;29769;42.178;24.742;2023-05-17T11:34:52;99145.34;;;15.85;100.00
44103;BME280;29769;42.178;24.742;2023-05-17T11:37:36;99137.38;;;15.67;100.00
44103;BME280;29769;42.178;24.742;2023-05-17T11:40:25;99139.78;;;15.52;100.00
44103;BME280;29769;42.178;24.742;2023-05-17T11:43:21;99135.66;;;15.25;100.00
44103;BME280;29769;42.178;24.742;2023-05-17T11:46:09;99135.22;;;15.14;100.00
44103;BME280;29769;42.178;24.742;2023-05-17T11:49:01;99129.06;;;15.13;100.00
44103;BME280;29769;42.178;24.742;2023-05-17T11:51:49;99124.78;;;15.11;100.00
44103;BME280;29769;42.178;24.742;2023-05-17T11:54:36;99128.47;;;15.07;100.00
44103;BME280;29769;42.178;24.742;2023-05-17T11:57:22;99132.97;;;15.05;100.00
44103;BME280;29769;42.178;24.742;2023-05-17T12:00:12;99130.31;;;15.05;100.00
44103;BME280;29769;42.178;24.742;2023-05-17T12:02:58;99126.88;;;15.03;100.00
44103;BME280;29769;42.178;24.742;2023-05-17T12:08:48;99120.25;;;14.93;100.00
44103;BME280;29769;42.178;24.742;2023-05-17T12:11:33;99128.38;;;14.88;100.00
44103;BME280;29769;42.178;24.742;2023-05-17T12:14:18;99125.69;;;14.90;100.00
44103;BME280;29769;42.178;24.742;2023-05-17T12:17:04;99123.09;;;14.88;100.00
44103;BME280;29769;42.178;24.742;2023-05-17T12:19:51;99121.91;;;14.95;100.00
44103;BME280;29769;42.178;24.742;2023-05-17T12:22:53;99115.56;;;15.20;100.00
44103;BME280;29769;42.178;24.742;2023-05-17T12:25:39;99116.59;;;15.36;100.00
44103;BME280;29769;42.178;24.742;2023-05-17T12:28:24;99109.69;;;15.53;100.00
44103;BME280;29769;42.178;24.742;2023-05-17T12:31:09;99115.16;;;15.69;100.00
44103;BME280;29769;42.178;24.742;2023-05-17T12:33:55;99126.88;;;15.64;100.00
44103;BME280;29769;42.178;24.742;2023-05-17T12:36:42;99124.19;;;15.65;100.00
44103;BME280;29769;42.178;24.742;2023-05-17T12:39:27;99122.84;;;15.75;100.00
44103;BME280;29769;42.178;24.742;2023-05-17T12:42:14;99116.97;;;15.87;100.00
44103;BME280;29769;42.178;24.742;2023-05-17T12:44:59;99112.56;;;16.07;100.00
44103;BME280;29769;42.178;24.742;2023-05-17T12:47:43;99113.03;;;16.33;100.00
44103;BME280;29769;42.178;24.742;2023-05-17T12:50:29;99116.88;;;16.45;100.00
44103;BME280;29769;42.178;24.742;2023-05-17T12:53:14;99113.78;;;16.54;100.00
44103;BME280;29769;42.178;24.742;2023-05-17T12:55:58;99110.78;;;16.80;100.00
44103;BME280;29769;42.178;24.742;2023-05-17T12:58:43;99100.22;;;16.96;100.00
44103;BME280;29769;42.178;24.742;2023-05-17T13:01:50;99101.53;;;17.05;100.00
44103;BME280;29769;42.178;24.742;2023-05-17T13:04:35;99098.06;;;17.21;100.00
44103;BME280;29769;42.178;24.742;2023-05-17T13:07:22;99099.50;;;17.44;100.00
44103;BME280;29769;42.178;24.742;2023-05-17T13:10:23;99099.34;;;17.64;100.00
44103;BME280;29769;42.178;24.742;2023-05-17T13:13:09;99092.41;;;17.77;100.00
44103;BME280;29769;42.178;24.742;2023-05-17T13:16:01;99082.56;;;17.80;100.00
44103;BME280;29769;42.178;24.742;2023-05-17T13:18:46;99087.69;;;17.83;100.00
44103;BME280;29769;42.178;24.742;2023-05-17T13:21:31;99077.13;;;17.81;100.00
44103;BME280;29769;42.178;24.742;2023-05-17T13:24:16;99074.69;;;17.94;100.00
44103;BME280;29769;42.178;24.742;2023-05-17T13:27:01;99072.28;;;18.05;100.00
44103;BME280;29769;42.178;24.742;2023-05-17T13:29:46;99071.06;;;17.95;100.00
44103;BME280;29769;42.178;24.742;2023-05-17T13:32:30;99072.78;;;17.96;100.00
44103;BME280;29769;42.178;24.742;2023-05-17T13:35:16;99073.81;;;18.09;100.00
44103;BME280;29769;42.178;24.742;2023-05-17T13:38:00;99081.28;;;18.18;100.00
44103;BME280;29769;42.178;24.742;2023-05-17T13:40:45;99087.66;;;18.15;100.00
44103;BME280;29769;42.178;24.742;2023-05-17T13:43:29;99083.34;;;18.13;100.00
44103;BME280;29769;42.178;24.742;2023-05-17T13:46:14;99080.38;;;18.03;100.00
44103;BME280;29769;42.178;24.742;2023-05-17T13:48:59;99043.53;;;17.80;100.00
44103;BME280;29769;42.178;24.742;2023-05-17T13:51:46;99075.88;;;18.04;100.00
44103;BME280;29769;42.178;24.742;2023-05-17T13:54:31;99074.84;;;17.91;100.00
44103;BME280;29769;42.178;24.742;2023-05-17T13:57:15;99076.56;;;17.92;100.00
44103;BME280;29769;42.178;24.742;2023-05-17T14:00:00;99074.66;;;17.78;100.00
44103;BME280;29769;42.178;24.742;2023-05-17T14:02:45;99078.13;;;17.63;100.00
44103;BME280;29769;42.178;24.742;2023-05-17T14:05:29;99076.06;;;17.18;100.00
44103;BME280;29769;42.178;24.742;2023-05-17T14:08:16;99071.56;;;17.03;100.00
44103;BME280;29769;42.178;24.742;2023-05-17T14:11:01;99071.94;;;16.95;100.00
44103;BME280;29769;42.178;24.742;2023-05-17T14:13:46;99066.00;;;17.07;100.00
44103;BME280;29769;42.178;24.742;2023-05-17T14:16:30;99062.63;;;17.04;100.00
44103;BME280;29769;42.178;24.742;2023-05-17T14:19:15;99051.00;;;16.89;100.00
44103;BME280;29769;42.178;24.742;2023-05-17T14:22:00;99054.81;;;16.83;100.00
44103;BME280;29769;42.178;24.742;2023-05-17T14:24:44;99047.78;;;16.82;100.00
44103;BME280;29769;42.178;24.742;2023-05-17T14:27:29;99044.91;;;16.87;100.00
44103;BME280;29769;42.178;24.742;2023-05-17T14:30:14;99033.88;;;16.95;100.00
44103;BME280;29769;42.178;24.742;2023-05-17T14:32:58;99034.41;;;17.01;100.00
44103;BME280;29769;42.178;24.742;2023-05-17T14:35:43;99030.25;;;17.13;100.00
44103;BME280;29769;42.178;24.742;2023-05-17T14:38:28;99037.22;;;17.15;100.00
44103;BME280;29769;42.178;24.742;2023-05-17T14:41:13;99038.84;;;17.18;100.00
44103;BME280;29769;42.178;24.742;2023-05-17T14:44:00;99029.09;;;17.18;100.00